Time;durP1;ratioP1;P1;durP2;ratioP2;P2;SDS_P1;SDS_P2;PMS_P1;PMS_P2;Temp;Humidity;BMP_temperature;BMP_pressure;BME280_temperature;BME280_humidity;BME280_pressure;Samples;Min_cycle;Max_cycle;Signal;HPM_P1;HPM_P2
2021/07/07 00:02:27;;;;;;;;;;;14.00;73.70;;;;;;4994421;28;95918;-52
2021/07/07 00:04:58;;;;;;;6.90;6.20;;;14.10;73.60;;;;;;4992196;28;96239;-52
2021/07/07 00:07:30;;;;;;;7.28;6.43;;;14.10;73.60;;;;;;5002913;28;96063;-54
2021/07/07 00:10:00;;;;;;;8.50;6.85;;;14.20;73.50;;;;;;4993415;28;98149;-54
2021/07/07 00:12:30;;;;;;;7.57;5.95;;;14.10;73.50;;;;;;4992257;28;95614;-54
2021/07/07 00:15:01;;;;;;;7.50;5.50;;;14.10;73.50;;;;;;4998096;28;96742;-53
2021/07/07 00:17:31;;;;;;;9.48;6.85;;;14.10;73.70;;;;;;4991095;28;95595;-53
2021/07/07 00:20:06;;;;;;;6.05;5.40;;;14.10;73.80;;;;;;4990218;28;96452;-56
2021/07/07 00:22:37;;;;;;;13.02;7.43;;;14.20;73.80;;;;;;4991302;28;97364;-53
2021/07/07 00:25:09;;;;;;;9.35;7.10;;;14.20;73.90;;;;;;5004103;28;97628;-54
2021/07/07 00:27:41;;;;;;;7.35;6.20;;;14.20;73.90;;;;;;4987525;28;95371;-55
2021/07/07 00:30:15;;;;;;;9.85;7.35;;;14.20;73.90;;;;;;4964350;28;97797;-56
2021/07/07 00:32:45;;;;;;;9.85;8.45;;;14.10;74.40;;;;;;4979916;28;95619;-55
2021/07/07 00:35:16;;;;;;;11.37;8.90;;;14.20;74.40;;;;;;4998051;28;96304;-57
2021/07/07 00:37:46;;;;;;;10.13;8.23;;;14.20;74.30;;;;;;5000620;28;95791;-57
2021/07/07 00:40:19;;;;;;;12.23;8.60;;;14.30;74.20;;;;;;4995455;28;95905;-57
2021/07/07 00:42:49;;;;;;;;;;;14.30;74.00;;;;;;5001311;28;95963;-56
2021/07/07 00:45:21;;;;;;;9.07;7.57;;;14.30;73.90;;;;;;4999931;28;95921;-55
2021/07/07 00:47:52;;;;;;;9.57;6.90;;;14.40;74.00;;;;;;5000956;28;95883;-57
2021/07/07 00:50:24;;;;;;;11.75;7.95;;;14.40;73.80;;;;;;5002128;28;96578;-57
2021/07/07 00:52:56;;;;;;;10.93;7.93;;;14.50;73.70;;;;;;4994035;28;96035;-57
2021/07/07 00:55:27;;;;;;;8.23;7.40;;;14.60;73.40;;;;;;5000617;28;96026;-57
2021/07/07 00:58:00;;;;;;;10.50;7.00;;;14.60;73.50;;;;;;4998137;28;96187;-57
2021/07/07 01:00:33;;;;;;;10.05;6.50;;;14.70;73.70;;;;;;4999592;28;98808;-58
2021/07/07 01:03:04;;;;;;;9.57;6.57;;;14.70;74.40;;;;;;4998571;28;95718;-56
2021/07/07 01:05:35;;;;;;;7.78;6.00;;;14.80;74.20;;;;;;5002660;28;95796;-56
2021/07/07 01:08:06;;;;;;;6.95;5.93;;;14.90;73.80;;;;;;5000186;28;97194;-56
2021/07/07 01:10:37;;;;;;;7.18;6.05;;;15.00;73.50;;;;;;5003293;28;95851;-51
2021/07/07 01:13:07;;;;;;;5.97;5.38;;;15.00;73.30;;;;;;4993723;28;95741;-55
2021/07/07 01:15:40;;;;;;;7.15;5.45;;;15.00;73.10;;;;;;4980097;28;95953;-56
2021/07/07 01:18:12;;;;;;;6.53;5.10;;;15.10;72.90;;;;;;4999967;28;102147;-56
2021/07/07 01:20:43;;;;;;;4.40;4.00;;;15.20;72.80;;;;;;4986330;28;95817;-62
2021/07/07 01:23:13;;;;;;;6.57;5.18;;;15.10;72.70;;;;;;4999968;28;96442;-56
2021/07/07 01:25:44;;;;;;;6.18;5.57;;;15.20;72.50;;;;;;4986127;28;97040;-61
2021/07/07 01:28:17;;;;;;;6.07;4.70;;;15.20;72.40;;;;;;4997138;28;96537;-56
2021/07/07 01:30:51;;;;;;;4.50;4.07;;;15.30;72.30;;;;;;4958509;28;97804;-61
2021/07/07 01:33:21;;;;;;;5.60;4.40;;;15.30;72.80;;;;;;4985469;28;95958;-59
2021/07/07 01:35:51;;;;;;;5.03;3.92;;;15.40;73.20;;;;;;5003513;28;95972;-60
2021/07/07 01:38:21;;;;;;;4.38;3.97;;;15.50;73.70;;;;;;5000813;28;96015;-59
2021/07/07 01:40:56;;;;;;;5.70;3.90;;;15.60;73.60;;;;;;5002653;28;96612;-61
2021/07/07 01:44:05;;;;;;;3.88;3.47;;;15.70;73.60;;;;;;4998898;28;95998;-60
2021/07/07 01:46:37;;;;;;;4.68;3.90;;;15.80;73.40;;;;;;4988990;28;95935;-59
2021/07/07 01:49:10;;;;;;;4.53;3.45;;;16.00;73.10;;;;;;4997829;28;95918;-60
2021/07/07 01:51:42;;;;;;;3.67;3.38;;;16.10;73.10;;;;;;4992729;28;96358;-55
2021/07/07 01:54:13;;;;;;;5.05;3.70;;;16.20;72.90;;;;;;4997427;28;95833;-61
2021/07/07 01:56:43;;;;;;;4.45;3.53;;;16.30;72.60;;;;;;5000734;28;95899;-58
2021/07/07 01:59:13;;;;;;;3.72;3.30;;;16.40;72.10;;;;;;4999229;28;96158;-61
2021/07/07 02:01:43;;;;;;;3.88;3.47;;;16.50;71.90;;;;;;4996122;28;96006;-57
2021/07/07 02:04:13;;;;;;;4.00;3.60;;;16.60;71.50;;;;;;4993488;28;96043;-58
2021/07/07 02:06:44;;;;;;;3.10;2.80;;;16.60;71.20;;;;;;5002310;28;95951;-52
2021/07/07 02:09:18;;;;;;;4.20;3.00;;;16.70;71.10;;;;;;4999935;28;96059;-53
2021/07/07 02:11:50;;;;;;;3.80;2.85;;;16.80;70.80;;;;;;5001582;28;96643;-54
2021/07/07 02:14:21;;;;;;;3.33;3.03;;;16.90;70.30;;;;;;4998975;28;96813;-61
2021/07/07 02:16:53;;;;;;;4.05;3.00;;;16.90;69.70;;;;;;4996681;28;99150;-61
2021/07/07 02:19:25;;;;;;;2.70;2.50;;;17.00;69.40;;;;;;4978441;28;96189;-52
2021/07/07 02:21:55;;;;;;;4.53;4.13;;;17.00;69.50;;;;;;4996310;28;98014;-59
2021/07/07 02:24:24;;;;;;;3.40;3.05;;;17.10;69.20;;;;;;5001547;28;96025;-59
2021/07/07 02:26:54;;;;;;;6.07;2.30;;;17.10;68.80;;;;;;5001606;28;95891;-51
2021/07/07 02:29:25;;;;;;;5.18;2.83;;;17.10;68.50;;;;;;4988711;28;96907;-51
2021/07/07 02:31:57;;;;;;;3.03;2.65;;;17.10;68.70;;;;;;4992409;28;96469;-58
2021/07/07 02:34:28;;;;;;;;;;;17.20;68.70;;;;;;4985284;28;98750;-56
2021/07/07 02:36:58;;;;;;;3.33;2.72;;;17.20;68.80;;;;;;4994253;28;95890;-55
2021/07/07 02:39:28;;;;;;;4.55;2.72;;;17.30;68.80;;;;;;5000556;28;95698;-56
2021/07/07 02:42:00;;;;;;;4.18;3.15;;;17.30;68.70;;;;;;4975678;28;96488;-61
2021/07/07 02:44:32;;;;;;;4.65;2.63;;;17.30;68.70;;;;;;5000934;28;95731;-57
2021/07/07 02:47:04;;;;;;;3.05;2.75;;;17.30;68.50;;;;;;4994130;28;96053;-59
2021/07/07 02:49:37;;;;;;;5.57;2.80;;;17.40;68.50;;;;;;4999651;28;96564;-59
2021/07/07 02:52:08;;;;;;;3.80;2.63;;;17.40;68.40;;;;;;4989669;28;96409;-60
2021/07/07 02:54:37;;;;;;;4.05;2.70;;;17.50;68.60;;;;;;4996683;28;96209;-55
2021/07/07 02:57:07;;;;;;;4.85;2.83;;;17.50;68.50;;;;;;4998001;28;96045;-59
2021/07/07 02:59:37;;;;;;;2.50;2.30;;;17.50;68.40;;;;;;5001406;28;96577;-54
2021/07/07 03:02:08;;;;;;;4.38;2.35;;;17.50;68.20;;;;;;4994922;28;96527;-56
2021/07/07 03:04:40;;;;;;;3.08;2.30;;;17.50;68.10;;;;;;5001094;28;96557;-58
2021/07/07 03:07:10;;;;;;;3.25;2.55;;;17.60;68.50;;;;;;4996230;28;95907;-57
2021/07/07 03:09:41;;;;;;;3.25;2.28;;;17.60;68.00;;;;;;4983512;28;95989;-57
2021/07/07 03:12:12;;;;;;;3.45;2.40;;;17.60;67.90;;;;;;4998637;28;97397;-59
2021/07/07 03:14:44;;;;;;;2.15;1.95;;;17.60;67.90;;;;;;5003131;28;96028;-54
2021/07/07 03:17:14;;;;;;;;;;;17.70;68.40;;;;;;4991509;28;97684;-55
2021/07/07 03:19:45;;;;;;;2.28;2.08;;;17.80;68.50;;;;;;5006863;28;96139;-53
2021/07/07 03:22:16;;;;;;;3.15;2.78;;;17.80;68.70;;;;;;5003140;28;96158;-54
2021/07/07 03:24:46;;;;;;;2.53;1.88;;;17.80;68.70;;;;;;5004073;28;95974;-56
2021/07/07 03:27:17;;;;;;;2.55;1.75;;;17.80;68.80;;;;;;4997534;28;96283;-58
2021/07/07 03:29:49;;;;;;;2.38;1.85;;;17.90;68.80;;;;;;5002889;28;95811;-58
2021/07/07 03:32:19;;;;;;;2.55;2.10;;;18.00;68.90;;;;;;4979983;28;97114;-55
2021/07/07 03:34:49;;;;;;;1.98;1.77;;;18.00;68.90;;;;;;5004164;28;97525;-56
2021/07/07 03:37:20;;;;;;;2.22;2.03;;;18.00;68.80;;;;;;4995612;28;96214;-54
2021/07/07 03:39:52;;;;;;;1.88;1.70;;;18.10;68.90;;;;;;5004738;28;96060;-58
2021/07/07 03:42:23;;;;;;;2.85;2.05;;;18.10;68.90;;;;;;4999320;28;97420;-58
2021/07/07 03:44:54;;;;;;;1.75;1.52;;;18.10;68.90;;;;;;4995550;28;95922;-58
2021/07/07 03:47:26;;;;;;;3.63;2.03;;;18.10;68.90;;;;;;4998426;28;95966;-56
2021/07/07 03:49:57;;;;;;;2.60;2.00;;;18.20;69.00;;;;;;4998617;28;96527;-55
2021/07/07 03:52:28;;;;;;;2.28;2.08;;;18.20;69.00;;;;;;4993731;28;100453;-57
2021/07/07 03:54:57;;;;;;;2.43;2.20;;;18.20;69.10;;;;;;4999849;28;95811;-55
2021/07/07 03:57:27;;;;;;;2.35;1.65;;;18.20;69.10;;;;;;5000346;28;95816;-56
2021/07/07 03:59:59;;;;;;;1.98;1.77;;;18.30;69.20;;;;;;4995456;28;97331;-55
2021/07/07 04:02:39;;;;;;;2.10;1.73;;;18.30;69.30;;;;;;4989346;28;98199;-54
2021/07/07 04:05:11;;;;;;;1.60;1.50;;;18.30;69.30;;;;;;4985375;28;96628;-58
2021/07/07 04:07:44;;;;;;;2.72;1.70;;;18.30;69.30;;;;;;5004174;28;95769;-59
2021/07/07 04:10:17;;;;;;;3.05;1.85;;;18.30;69.30;;;;;;5001786;28;96977;-56
2021/07/07 04:12:49;;;;;;;6.57;2.05;;;18.30;68.10;;;;;;4981308;28;97281;-57
2021/07/07 04:15:21;;;;;;;2.75;1.92;;;18.30;68.60;;;;;;4993333;28;96463;-58
2021/07/07 04:17:54;;;;;;;2.22;1.90;;;18.30;68.70;;;;;;4996660;28;95665;-56
2021/07/07 04:20:25;;;;;;;2.40;1.80;;;18.40;69.30;;;;;;5000200;28;96111;-56
2021/07/07 04:22:55;;;;;;;3.28;2.42;;;18.40;68.60;;;;;;5001746;28;96507;-58
2021/07/07 04:25:31;;;;;;;3.20;2.30;;;18.40;67.00;;;;;;4993072;28;97142;-58
2021/07/07 04:28:03;;;;;;;2.83;2.40;;;18.10;65.90;;;;;;4995378;28;95434;-56
2021/07/07 04:30:35;;;;;;;2.88;2.10;;;18.00;66.60;;;;;;4976213;28;95825;-58
2021/07/07 04:33:05;;;;;;;3.55;2.25;;;17.80;67.20;;;;;;4996156;28;96717;-57
2021/07/07 04:35:37;;;;;;;2.70;2.50;;;17.80;67.60;;;;;;4993409;28;95904;-58
2021/07/07 04:38:07;;;;;;;2.60;2.40;;;17.70;67.90;;;;;;4993449;28;98441;-59
2021/07/07 04:40:38;;;;;;;2.95;2.65;;;17.60;68.10;;;;;;4999298;28;95810;-57
2021/07/07 04:43:09;;;;;;;2.00;1.80;;;17.60;68.40;;;;;;5000580;28;96003;-56
2021/07/07 04:45:41;;;;;;;3.92;3.47;;;17.70;68.10;;;;;;4988099;28;95919;-58
2021/07/07 04:48:13;;;;;;;6.70;3.80;;;17.70;67.70;;;;;;4997861;28;96124;-60
2021/07/07 04:50:44;;;;;;;5.28;4.78;;;17.70;67.80;;;;;;4979931;28;97702;-58
2021/07/07 04:53:14;;;;;;;5.70;3.73;;;17.60;67.90;;;;;;4992347;28;96465;-60
2021/07/07 04:55:44;;;;;;;5.82;4.38;;;17.50;68.20;;;;;;4998442;28;96214;-58
2021/07/07 04:58:14;;;;;;;4.53;3.70;;;17.40;68.40;;;;;;5002222;28;96077;-57
2021/07/07 05:00:47;;;;;;;3.88;3.40;;;17.30;68.50;;;;;;4995075;28;95753;-54
2021/07/07 05:03:19;;;;;;;6.20;3.40;;;17.30;69.00;;;;;;4999023;28;96119;-53
2021/07/07 05:05:50;;;;;;;3.28;2.97;;;17.50;69.00;;;;;;4976283;28;96183;-57
2021/07/07 05:08:19;;;;;;;3.40;3.10;;;17.60;69.20;;;;;;4997416;28;96078;-52
2021/07/07 05:10:50;;;;;;;3.13;2.88;;;17.60;69.30;;;;;;5001399;28;95624;-53
2021/07/07 05:13:23;;;;;;;3.22;3.03;;;17.70;69.30;;;;;;4997956;28;98211;-55
2021/07/07 05:15:54;;;;;;;3.20;2.90;;;17.80;69.40;;;;;;4979925;28;97324;-55
2021/07/07 05:18:26;;;;;;;3.88;2.83;;;17.80;69.40;;;;;;4999962;28;95640;-57
2021/07/07 05:20:57;;;;;;;3.88;3.20;;;17.90;69.40;;;;;;5004593;28;96085;-56
2021/07/07 05:23:28;;;;;;;2.83;2.63;;;18.00;69.50;;;;;;4995165;28;96323;-54
2021/07/07 05:26:01;;;;;;;3.33;2.42;;;18.00;69.60;;;;;;5001347;28;95362;-55
2021/07/07 05:28:32;;;;;;;2.80;2.50;;;18.00;69.60;;;;;;4997337;28;95806;-56
2021/07/07 05:31:06;;;;;;;2.67;2.47;;;18.10;69.80;;;;;;4998160;28;96612;-54
2021/07/07 05:33:38;;;;;;;2.92;2.20;;;18.10;69.80;;;;;;4999607;28;95906;-54
2021/07/07 05:36:10;;;;;;;3.38;2.95;;;18.20;70.00;;;;;;5005172;28;97548;-52
2021/07/07 05:38:41;;;;;;;2.63;2.38;;;18.20;70.00;;;;;;4999316;28;96258;-52
2021/07/07 05:41:12;;;;;;;3.88;2.22;;;18.30;70.10;;;;;;4999922;28;95325;-54
2021/07/07 05:43:43;;;;;;;2.60;2.00;;;18.30;70.00;;;;;;5000094;28;96867;-56
2021/07/07 05:46:14;;;;;;;2.35;2.15;;;18.30;70.00;;;;;;4981902;28;96884;-57
2021/07/07 05:48:45;;;;;;;2.97;2.10;;;18.30;68.30;;;;;;5002281;28;96448;-56
2021/07/07 05:51:17;;;;;;;2.83;2.47;;;18.30;67.40;;;;;;4996543;28;96470;-58
2021/07/07 05:53:47;;;;;;;3.17;2.65;;;18.20;67.40;;;;;;4995765;28;96868;-60
2021/07/07 05:56:17;;;;;;;2.65;2.45;;;18.20;68.10;;;;;;5001652;28;96536;-61
2021/07/07 05:58:48;;;;;;;2.55;2.35;;;18.20;67.70;;;;;;4999869;28;96091;-56
2021/07/07 06:01:20;;;;;;;4.20;2.50;;;18.20;67.50;;;;;;4995191;28;96731;-58
2021/07/07 06:03:50;;;;;;;2.78;2.17;;;18.20;67.60;;;;;;5000084;28;98318;-57
2021/07/07 06:06:20;;;;;;;2.70;2.30;;;18.20;67.50;;;;;;5003701;28;95751;-55
2021/07/07 06:08:51;;;;;;;2.13;1.92;;;18.20;67.70;;;;;;4985094;28;95982;-56
2021/07/07 06:11:21;;;;;;;2.22;2.03;;;18.10;67.60;;;;;;5005837;28;96176;-56
2021/07/07 06:13:52;;;;;;;2.90;2.40;;;18.20;67.60;;;;;;4997280;28;98028;-56
2021/07/07 06:16:23;;;;;;;2.03;1.83;;;18.20;67.60;;;;;;4999451;28;95642;-57
2021/07/07 06:18:54;;;;;;;;;;;18.20;67.60;;;;;;5002916;28;95837;-57
2021/07/07 06:21:24;;;;;;;2.10;1.92;;;18.10;67.50;;;;;;5005320;28;96284;-58
2021/07/07 06:23:56;;;;;;;3.25;2.30;;;18.20;67.60;;;;;;4999601;28;97690;-56
2021/07/07 06:26:28;;;;;;;1.90;1.80;;;18.10;67.50;;;;;;5003310;28;96021;-57
2021/07/07 06:28:59;;;;;;;2.25;2.05;;;18.20;67.50;;;;;;4998303;28;95378;-57
2021/07/07 06:31:32;;;;;;;4.72;2.25;;;18.20;67.70;;;;;;4980356;28;95976;-54
2021/07/07 06:34:04;;;;;;;1.80;1.70;;;18.20;68.00;;;;;;5002772;28;96443;-53
2021/07/07 06:36:35;;;;;;;2.67;1.90;;;18.20;68.40;;;;;;5004305;28;96321;-53
2021/07/07 06:39:07;;;;;;;1.95;1.70;;;18.20;68.50;;;;;;5005396;28;95531;-54
2021/07/07 06:41:39;;;;;;;1.83;1.73;;;18.30;68.70;;;;;;5000553;28;96079;-53
2021/07/07 06:44:10;;;;;;;2.25;2.03;;;18.30;68.80;;;;;;5003108;28;95999;-51
2021/07/07 06:46:41;;;;;;;2.60;1.88;;;18.30;68.90;;;;;;4993236;28;95725;-52
2021/07/07 06:49:13;;;;;;;;;;;18.40;69.00;;;;;;5001377;28;97112;-56
2021/07/07 06:51:45;;;;;;;2.28;1.80;;;18.40;69.00;;;;;;4993160;28;97293;-58
2021/07/07 06:54:15;;;;;;;5.15;2.42;;;18.40;68.70;;;;;;5002058;28;98892;-59
2021/07/07 06:56:46;;;;;;;;;;;18.40;68.50;;;;;;5001021;28;96239;-58
2021/07/07 06:59:16;;;;;;;4.25;2.03;;;18.40;68.40;;;;;;5006125;28;96055;-56
2021/07/07 07:01:46;;;;;;;4.18;2.13;;;18.30;68.40;;;;;;4997074;28;95958;-56
2021/07/07 07:04:16;;;;;;;1.88;1.60;;;18.30;68.20;;;;;;4999888;28;96421;-57
2021/07/07 07:06:48;;;;;;;3.33;2.13;;;18.40;68.10;;;;;;5000997;28;96332;-58
2021/07/07 07:09:20;;;;;;;4.30;2.55;;;18.30;67.90;;;;;;5003450;28;95775;-57
2021/07/07 07:11:51;;;;;;;3.80;2.47;;;18.30;67.80;;;;;;4997404;28;102516;-57
2021/07/07 07:14:21;;;;;;;4.75;2.85;;;18.30;67.80;;;;;;5002164;28;96535;-55
2021/07/07 07:16:51;;;;;;;2.72;2.30;;;18.30;67.70;;;;;;4996509;28;95951;-56
2021/07/07 07:19:22;;;;;;;3.58;2.53;;;18.30;67.70;;;;;;5001543;28;96174;-56
2021/07/07 07:21:52;;;;;;;3.85;2.70;;;18.20;67.60;;;;;;4996300;28;95893;-57
2021/07/07 07:24:22;;;;;;;5.95;2.95;;;18.20;67.60;;;;;;5003306;28;97082;-55
2021/07/07 07:26:55;;;;;;;2.83;2.38;;;18.10;67.60;;;;;;5001616;28;97624;-56
2021/07/07 07:29:27;;;;;;;4.68;2.42;;;18.20;67.50;;;;;;5002273;28;96964;-56
2021/07/07 07:31:58;;;;;;;4.90;3.72;;;18.20;67.60;;;;;;4997995;28;97103;-57
2021/07/07 07:34:28;;;;;;;4.20;3.20;;;18.00;67.50;;;;;;5004450;28;96832;-58
2021/07/07 07:37:02;;;;;;;3.50;3.05;;;17.90;67.60;;;;;;4986949;28;96094;-60
2021/07/07 07:39:43;;;;;;;6.32;5.15;;;17.90;67.60;;;;;;4998529;28;96225;-56
2021/07/07 07:42:16;;;;;;;8.30;5.05;;;17.90;67.80;;;;;;5000929;28;95371;-60
2021/07/07 07:44:49;;;;;;;8.50;5.80;;;17.90;68.00;;;;;;5002869;28;95978;-61
2021/07/07 07:47:20;;;;;;;8.48;6.32;;;17.80;67.90;;;;;;4992772;28;98225;-57
2021/07/07 07:50:14;;;;;;;9.77;5.82;;;17.80;68.10;;;;;;4996771;28;96457;-59
2021/07/07 07:52:45;;;;;;;14.35;6.47;;;17.80;68.40;;;;;;4994870;28;100361;-56
2021/07/07 07:55:19;;;;;;;9.05;6.40;;;17.80;68.90;;;;;;4999293;28;96169;-58
2021/07/07 07:57:49;;;;;;;10.77;6.53;;;17.80;69.70;;;;;;5002160;28;95778;-55
2021/07/07 08:00:24;;;;;;;14.70;8.05;;;17.80;68.90;;;;;;5002370;28;96132;-55
2021/07/07 08:02:57;;;;;;;11.18;6.60;;;17.70;68.70;;;;;;4983826;28;96062;-55
2021/07/07 08:05:27;;;;;;;7.95;6.47;;;17.70;68.80;;;;;;5003543;28;96581;-58
2021/07/07 08:08:01;;;;;;;9.18;6.50;;;17.70;68.90;;;;;;5001032;28;98189;-55
2021/07/07 08:10:32;;;;;;;12.07;6.88;;;17.60;69.00;;;;;;4985920;28;96129;-55
2021/07/07 08:13:05;;;;;;;10.52;6.20;;;17.60;69.00;;;;;;5003544;28;97087;-57
2021/07/07 08:15:37;;;;;;;10.30;5.60;;;17.60;68.90;;;;;;5001169;28;97015;-55
2021/07/07 08:18:08;;;;;;;10.02;5.20;;;17.60;69.00;;;;;;5001041;28;96169;-57
2021/07/07 08:20:40;;;;;;;8.27;5.65;;;17.60;68.70;;;;;;5006299;28;95651;-56
2021/07/07 08:23:11;;;;;;;8.13;5.45;;;17.60;68.90;;;;;;5005740;28;96796;-55
2021/07/07 08:25:42;;;;;;;6.78;4.93;;;17.60;69.00;;;;;;4995220;28;96224;-52
2021/07/07 08:28:13;;;;;;;9.45;5.25;;;17.60;69.10;;;;;;4994734;28;95941;-54
2021/07/07 08:30:45;;;;;;;6.82;5.10;;;17.60;69.10;;;;;;4993716;28;96233;-53
2021/07/07 08:33:16;;;;;;;7.20;5.50;;;17.60;69.00;;;;;;5000624;28;95903;-57
2021/07/07 08:38:33;;;;;;;8.05;5.15;;;17.60;68.50;;;;;;5017023;27;95749;-55
2021/07/07 08:41:06;;;;;;;5.35;4.43;;;17.50;68.90;;;;;;5012437;27;95754;-57
2021/07/07 08:43:38;;;;;;;7.65;5.50;;;17.50;69.20;;;;;;5016216;27;100037;-60
2021/07/07 08:46:09;;;;;;;;;;;17.40;69.30;;;;;;5002339;27;96796;-54
2021/07/07 08:48:40;;;;;;;5.87;4.73;;;17.40;69.50;;;;;;4971442;28;96473;-53
2021/07/07 08:51:12;;;;;;;6.03;4.45;;;17.30;69.50;;;;;;4971895;28;96394;-55
2021/07/07 08:53:45;;;;;;;5.63;4.47;;;17.30;69.50;;;;;;4972658;28;95808;-57
2021/07/07 08:56:17;;;;;;;7.40;4.60;;;17.30;69.80;;;;;;4966151;28;95837;-54
2021/07/07 08:58:50;;;;;;;5.05;4.47;;;17.30;69.80;;;;;;4972053;28;95407;-56
2021/07/07 09:01:20;;;;;;;5.75;4.40;;;17.30;70.00;;;;;;4959471;28;95961;-54
2021/07/07 09:03:50;;;;;;;5.88;4.35;;;17.30;70.00;;;;;;4968847;28;96647;-55
2021/07/07 09:06:20;;;;;;;5.57;4.32;;;17.30;70.20;;;;;;4969570;28;96056;-55
2021/07/07 09:08:51;;;;;;;4.53;3.22;;;17.30;70.30;;;;;;4970123;28;95792;-54
2021/07/07 09:11:29;;;;;;;6.70;4.32;;;17.30;70.40;;;;;;4969020;28;95290;-53
2021/07/07 09:14:12;;;;;;;4.00;3.60;;;17.30;70.50;;;;;;4975454;28;96017;-55
2021/07/07 09:16:47;;;;;;;7.50;4.32;;;17.30;70.60;;;;;;4961614;28;96171;-55
2021/07/07 09:19:19;;;;;;;5.72;3.95;;;17.30;70.70;;;;;;4963742;28;98060;-55
2021/07/07 09:21:52;;;;;;;4.75;3.72;;;17.20;70.70;;;;;;4973765;28;95385;-56
2021/07/07 09:24:26;;;;;;;5.43;4.55;;;17.20;70.70;;;;;;4970819;28;96979;-55
2021/07/07 09:27:14;;;;;;;6.32;4.10;;;17.20;70.80;;;;;;4969388;28;96709;-51
2021/07/07 09:29:53;;;;;;;5.32;4.07;;;17.20;70.70;;;;;;4988886;28;95557;-52
2021/07/07 09:32:29;;;;;;;4.63;4.05;;;17.20;70.80;;;;;;5000605;28;95935;-52
2021/07/07 09:35:05;;;;;;;5.88;3.22;;;17.20;70.80;;;;;;4999642;28;95838;-54
2021/07/07 09:37:45;;;;;;;5.10;3.65;;;17.20;70.80;;;;;;4989242;28;96038;-56
2021/07/07 09:40:16;;;;;;;3.90;3.15;;;17.20;70.80;;;;;;4992895;28;95297;-56
2021/07/07 09:42:50;;;;;;;4.38;3.30;;;17.20;70.70;;;;;;4990364;28;101040;-55
2021/07/07 09:45:22;;;;;;;5.45;4.13;;;17.20;70.80;;;;;;4989930;28;98201;-53
2021/07/07 09:47:52;;;;;;;4.70;3.45;;;17.20;70.80;;;;;;4988618;28;96360;-52
2021/07/07 09:50:23;;;;;;;3.30;2.97;;;17.20;71.40;;;;;;4973494;28;95707;-54
2021/07/07 09:52:56;;;;;;;4.00;3.25;;;17.10;70.80;;;;;;4975501;28;95315;-54
2021/07/07 09:55:28;;;;;;;5.50;3.83;;;17.10;70.80;;;;;;4979729;28;98940;-54
2021/07/07 09:57:59;;;;;;;4.60;3.53;;;17.10;70.70;;;;;;4980659;28;96454;-55
2021/07/07 10:00:37;;;;;;;4.38;3.80;;;17.10;70.70;;;;;;4975944;28;95317;-54
2021/07/07 10:03:07;;;;;;;4.78;4.28;;;17.10;70.90;;;;;;4984398;28;95793;-53
2021/07/07 10:05:42;;;;;;;6.50;4.97;;;17.10;71.00;;;;;;4978683;28;95871;-55
2021/07/07 10:08:14;;;;;;;7.20;5.22;;;17.10;71.10;;;;;;4971252;28;95876;-56
2021/07/07 10:10:44;;;;;;;5.50;5.00;;;17.10;71.10;;;;;;4992407;28;95794;-55
2021/07/07 10:13:15;;;;;;;7.78;5.05;;;17.10;71.10;;;;;;4983254;28;95819;-54
2021/07/07 10:15:47;;;;;;;;;;;17.10;71.10;;;;;;4974229;28;95897;-54
2021/07/07 10:18:18;;;;;;;;;;;17.00;71.30;;;;;;4987206;28;97128;-53
2021/07/07 10:20:50;;;;;;;6.20;4.82;;;17.00;71.60;;;;;;4983110;28;96121;-54
2021/07/07 10:23:22;;;;;;;6.30;5.50;;;16.90;71.70;;;;;;4976997;28;95751;-54
2021/07/07 10:26:03;;;;;;;6.05;5.07;;;16.90;71.70;;;;;;4988074;28;96023;-55
2021/07/07 10:28:34;;;;;;;6.32;5.28;;;16.90;71.80;;;;;;4980743;28;96480;-54
2021/07/07 10:31:07;;;;;;;6.30;4.97;;;16.90;71.80;;;;;;4969980;28;95873;-54
2021/07/07 10:33:40;;;;;;;6.57;5.15;;;16.90;71.70;;;;;;4961010;28;95728;-53
2021/07/07 10:36:25;;;;;;;6.13;5.15;;;16.80;71.70;;;;;;4963635;28;95667;-55
2021/07/07 10:39:07;;;;;;;6.15;4.80;;;16.80;71.60;;;;;;4991647;28;97019;-56
2021/07/07 10:41:47;;;;;;;6.05;5.13;;;16.90;71.60;;;;;;4947324;28;95466;-54
2021/07/07 10:44:24;;;;;;;6.43;5.50;;;16.90;71.50;;;;;;4959858;28;96062;-52
2021/07/07 10:47:02;;;;;;;7.70;5.65;;;16.90;71.40;;;;;;4952064;28;96627;-54
2021/07/07 10:49:51;;;;;;;6.30;5.32;;;16.90;71.40;;;;;;4951118;28;96045;-54
2021/07/07 10:52:40;;;;;;;7.97;5.38;;;16.90;71.40;;;;;;4959918;28;95791;-54
2021/07/07 10:55:12;;;;;;;6.40;5.22;;;16.90;71.20;;;;;;4955535;28;96894;-51
2021/07/07 10:57:47;;;;;;;6.03;5.38;;;16.90;71.30;;;;;;4955346;28;95820;-53
2021/07/07 11:00:29;;;;;;;7.57;6.13;;;16.90;71.20;;;;;;4952094;28;96108;-53
2021/07/07 11:03:17;;;;;;;;;;;16.90;71.20;;;;;;4963108;28;101542;-52
2021/07/07 11:05:47;;;;;;;5.88;5.28;;;16.90;71.20;;;;;;4961114;28;96104;-50
2021/07/07 11:08:21;;;;;;;6.82;5.55;;;16.90;71.20;;;;;;4958884;28;95791;-51
2021/07/07 11:11:00;;;;;;;6.40;5.28;;;16.80;71.10;;;;;;4956357;28;95856;-52
2021/07/07 11:13:43;;;;;;;8.02;6.00;;;16.90;71.10;;;;;;4953516;28;97899;-50
2021/07/07 11:16:19;;;;;;;6.75;5.47;;;16.90;71.20;;;;;;4967549;28;96537;-49
2021/07/07 11:18:52;;;;;;;6.07;5.47;;;16.80;71.10;;;;;;4961199;28;96029;-50
2021/07/07 11:21:21;;;;;;;;;;;16.80;71.00;;;;;;4955888;28;103607;-52
2021/07/07 11:23:53;;;;;;;6.68;5.88;;;16.90;71.00;;;;;;4959925;28;95651;-51
2021/07/07 11:26:27;;;;;;;6.38;5.75;;;17.00;71.10;;;;;;4955906;28;96227;-53
2021/07/07 11:28:58;;;;;;;;;;;17.00;70.80;;;;;;4960620;28;96145;-58
2021/07/07 11:31:32;;;;;;;6.57;5.93;;;17.10;70.60;;;;;;4951569;28;96861;-52
2021/07/07 11:34:07;;;;;;;7.20;5.30;;;17.20;70.50;;;;;;4961540;28;95402;-52
2021/07/07 11:36:39;;;;;;;;;;;17.20;70.20;;;;;;4958367;28;95831;-54
2021/07/07 11:39:22;;;;;;;6.82;5.78;;;17.20;70.10;;;;;;4961544;28;96248;-52
2021/07/07 11:42:08;;;;;;;6.85;5.75;;;17.30;70.40;;;;;;4947151;28;101518;-53
2021/07/07 11:44:41;;;;;;;6.57;5.88;;;17.30;70.60;;;;;;4957547;28;97939;-51
2021/07/07 11:47:13;;;;;;;6.78;5.75;;;17.30;70.50;;;;;;4948071;28;96503;-58
2021/07/07 11:50:05;;;;;;;8.55;6.70;;;17.30;70.40;;;;;;4957699;28;95481;-51
2021/07/07 11:53:08;;;;;;;6.80;5.60;;;17.30;70.30;;;;;;4956613;28;95977;-58
2021/07/07 11:56:13;;;;;;;7.10;6.40;;;17.20;70.20;;;;;;4958910;28;96882;-51
2021/07/07 11:58:56;;;;;;;6.40;5.40;;;17.20;70.20;;;;;;4972480;28;95994;-58
2021/07/07 12:01:31;;;;;;;6.68;5.85;;;17.20;70.10;;;;;;4965904;28;96323;-56
2021/07/07 12:04:15;;;;;;;6.90;6.20;;;17.20;70.10;;;;;;4951885;28;96465;-57
2021/07/07 12:06:59;;;;;;;8.07;6.15;;;17.20;70.10;;;;;;4955340;28;95515;-59
2021/07/07 12:09:31;;;;;;;6.88;6.10;;;17.20;70.00;;;;;;4971831;28;95905;-59
2021/07/07 12:12:06;;;;;;;6.40;5.68;;;17.10;70.00;;;;;;4958798;28;95715;-59
2021/07/07 12:14:41;;;;;;;7.13;5.65;;;17.10;70.00;;;;;;4966992;28;96986;-54
2021/07/07 12:17:17;;;;;;;7.60;6.68;;;17.10;70.00;;;;;;4958059;28;95675;-57
2021/07/07 12:19:50;;;;;;;6.38;5.60;;;17.10;70.00;;;;;;4955834;28;98139;-57
2021/07/07 12:22:26;;;;;;;6.18;5.57;;;17.10;70.00;;;;;;4956262;28;96045;-58
2021/07/07 12:25:07;;;;;;;6.25;5.43;;;17.10;70.00;;;;;;4959013;28;96267;-51
2021/07/07 12:27:41;;;;;;;8.05;6.35;;;17.10;70.00;;;;;;4961072;28;97636;-56
2021/07/07 12:30:15;;;;;;;5.85;5.25;;;17.10;70.60;;;;;;4959704;28;95814;-58
2021/07/07 12:32:47;;;;;;;6.57;5.90;;;17.00;69.90;;;;;;4973258;28;95445;-57
2021/07/07 12:35:18;;;;;;;6.15;5.53;;;17.10;70.00;;;;;;4959415;28;95855;-58
2021/07/07 12:37:50;;;;;;;;;;;17.00;69.90;;;;;;4957995;28;95999;-52
2021/07/07 12:40:24;;;;;;;5.40;4.88;;;17.00;69.90;;;;;;4954595;28;96121;-58
2021/07/07 12:43:15;;;;;;;6.15;5.55;;;17.00;70.00;;;;;;4956775;28;95982;-58
2021/07/07 12:45:48;;;;;;;6.00;5.40;;;17.00;70.00;;;;;;4952973;28;96622;-52
2021/07/07 12:48:20;;;;;;;5.90;5.22;;;17.00;70.00;;;;;;4959361;28;96120;-57
2021/07/07 12:50:51;;;;;;;6.40;4.93;;;17.00;70.00;;;;;;4960137;28;96233;-53
2021/07/07 12:53:55;;;;;;;6.65;5.38;;;16.90;69.90;;;;;;4960287;28;95373;-55
2021/07/07 12:56:27;;;;;;;5.55;4.97;;;17.00;70.00;;;;;;4955098;28;96559;-54
2021/07/07 12:59:13;;;;;;;5.60;5.10;;;17.00;70.00;;;;;;4962557;28;95990;-59
2021/07/07 13:01:59;;;;;;;6.57;5.93;;;17.00;69.90;;;;;;4952960;28;95912;-55
2021/07/07 13:04:32;;;;;;;5.30;4.80;;;16.90;69.90;;;;;;4961866;28;96136;-59
2021/07/07 13:07:10;;;;;;;5.72;4.95;;;17.00;69.90;;;;;;4958040;28;95840;-51
2021/07/07 13:09:56;;;;;;;5.38;4.70;;;16.90;69.90;;;;;;4958980;28;95420;-59
2021/07/07 13:12:30;;;;;;;5.43;4.93;;;16.90;69.90;;;;;;4970985;28;96992;-52
2021/07/07 13:15:03;;;;;;;5.75;5.15;;;16.90;69.80;;;;;;4946904;28;97601;-53
2021/07/07 13:17:35;;;;;;;5.22;4.72;;;16.90;69.80;;;;;;4953181;28;97751;-58
2021/07/07 13:20:10;;;;;;;5.18;4.68;;;16.90;69.80;;;;;;4961765;28;96021;-54
2021/07/07 13:22:42;;;;;;;5.43;4.93;;;16.90;69.80;;;;;;4958213;28;96992;-52
2021/07/07 13:25:26;;;;;;;5.50;5.00;;;16.90;69.80;;;;;;4963546;28;96012;-59